sensor_id;sensor_type;location;lat;lon;timestamp;temperature;humidity
55642;DHT22;41509;53.108;6.100;2022-08-19T00:01:49;17.00;99.90
55642;DHT22;41509;53.108;6.100;2022-08-19T00:04:18;17.00;99.90
55642;DHT22;41509;53.108;6.100;2022-08-19T00:06:45;16.90;99.90
55642;DHT22;41509;53.108;6.100;2022-08-19T00:09:14;16.80;99.90
55642;DHT22;41509;53.108;6.100;2022-08-19T00:11:44;16.90;99.90
55642;DHT22;41509;53.108;6.100;2022-08-19T00:14:11;16.80;99.90
55642;DHT22;41509;53.108;6.100;2022-08-19T00:16:38;16.80;99.90
55642;DHT22;41509;53.108;6.100;2022-08-19T00:19:04;16.70;99.90
55642;DHT22;41509;53.108;6.100;2022-08-19T00:21:31;16.70;99.90
55642;DHT22;41509;53.108;6.100;2022-08-19T00:23:57;16.70;99.90
55642;DHT22;41509;53.108;6.100;2022-08-19T00:26:28;16.70;99.90
55642;DHT22;41509;53.108;6.100;2022-08-19T00:28:54;16.70;99.90
55642;DHT22;41509;53.108;6.100;2022-08-19T00:31:21;16.60;99.90
55642;DHT22;41509;53.108;6.100;2022-08-19T00:33:49;16.60;99.90
55642;DHT22;41509;53.108;6.100;2022-08-19T00:36:16;16.60;99.90
55642;DHT22;41509;53.108;6.100;2022-08-19T00:38:42;16.50;99.90
55642;DHT22;41509;53.108;6.100;2022-08-19T00:41:12;16.60;99.90
55642;DHT22;41509;53.108;6.100;2022-08-19T00:43:37;16.50;99.90
55642;DHT22;41509;53.108;6.100;2022-08-19T00:46:04;16.50;99.90
55642;DHT22;41509;53.108;6.100;2022-08-19T00:48:52;16.50;99.90
55642;DHT22;41509;53.108;6.100;2022-08-19T00:51:17;16.40;99.90
55642;DHT22;41509;53.108;6.100;2022-08-19T00:53:43;16.50;99.90
55642;DHT22;41509;53.108;6.100;2022-08-19T00:56:09;16.40;99.90
55642;DHT22;41509;53.108;6.100;2022-08-19T00:58:38;16.40;99.90
55642;DHT22;41509;53.108;6.100;2022-08-19T01:01:08;16.40;99.90
55642;DHT22;41509;53.108;6.100;2022-08-19T01:03:39;16.30;99.90
55642;DHT22;41509;53.108;6.100;2022-08-19T01:06:05;16.40;99.90
55642;DHT22;41509;53.108;6.100;2022-08-19T01:08:31;16.30;99.90
55642;DHT22;41509;53.108;6.100;2022-08-19T01:10:58;16.30;99.90
55642;DHT22;41509;53.108;6.100;2022-08-19T01:13:27;16.30;99.90
55642;DHT22;41509;53.108;6.100;2022-08-19T01:16:02;16.30;99.90
55642;DHT22;41509;53.108;6.100;2022-08-19T01:18:29;16.30;99.90
55642;DHT22;41509;53.108;6.100;2022-08-19T01:20:58;16.30;99.90
55642;DHT22;41509;53.108;6.100;2022-08-19T01:23:23;16.30;99.90
55642;DHT22;41509;53.108;6.100;2022-08-19T01:26:09;16.20;99.90
55642;DHT22;41509;53.108;6.100;2022-08-19T01:28:38;16.30;99.90
55642;DHT22;41509;53.108;6.100;2022-08-19T01:31:05;16.30;99.90
55642;DHT22;41509;53.108;6.100;2022-08-19T01:33:31;16.30;99.90
55642;DHT22;41509;53.108;6.100;2022-08-19T01:36:13;16.30;99.90
55642;DHT22;41509;53.108;6.100;2022-08-19T01:38:43;16.20;99.90
55642;DHT22;41509;53.108;6.100;2022-08-19T01:41:10;16.30;99.90
55642;DHT22;41509;53.108;6.100;2022-08-19T01:43:36;16.30;99.90
55642;DHT22;41509;53.108;6.100;2022-08-19T01:46:02;16.20;99.90
55642;DHT22;41509;53.108;6.100;2022-08-19T01:48:34;16.20;99.90
55642;DHT22;41509;53.108;6.100;2022-08-19T01:51:02;16.20;99.90
55642;DHT22;41509;53.108;6.100;2022-08-19T01:53:28;16.20;99.90
55642;DHT22;41509;53.108;6.100;2022-08-19T01:55:54;16.20;99.90
55642;DHT22;41509;53.108;6.100;2022-08-19T01:58:22;16.20;99.90
55642;DHT22;41509;53.108;6.100;2022-08-19T02:00:54;16.10;99.90
55642;DHT22;41509;53.108;6.100;2022-08-19T02:03:20;16.10;99.90
55642;DHT22;41509;53.108;6.100;2022-08-19T02:05:45;16.10;99.90
55642;DHT22;41509;53.108;6.100;2022-08-19T02:08:12;16.10;99.90
55642;DHT22;41509;53.108;6.100;2022-08-19T02:10:41;16.10;99.90
55642;DHT22;41509;53.108;6.100;2022-08-19T02:13:06;16.10;99.90
55642;DHT22;41509;53.108;6.100;2022-08-19T02:15:32;16.10;99.90
55642;DHT22;41509;53.108;6.100;2022-08-19T02:17:58;16.10;99.90
55642;DHT22;41509;53.108;6.100;2022-08-19T02:20:26;16.10;99.90
55642;DHT22;41509;53.108;6.100;2022-08-19T02:22:54;16.00;99.90
55642;DHT22;41509;53.108;6.100;2022-08-19T02:25:20;16.10;99.90
55642;DHT22;41509;53.108;6.100;2022-08-19T02:27:46;16.10;99.90
55642;DHT22;41509;53.108;6.100;2022-08-19T02:30:14;16.10;99.90
55642;DHT22;41509;53.108;6.100;2022-08-19T02:32:41;16.10;99.90
55642;DHT22;41509;53.108;6.100;2022-08-19T02:35:08;16.00;99.90
55642;DHT22;41509;53.108;6.100;2022-08-19T02:37:34;16.10;99.90
55642;DHT22;41509;53.108;6.100;2022-08-19T02:40:18;16.10;99.90
55642;DHT22;41509;53.108;6.100;2022-08-19T02:42:45;16.10;99.90
55642;DHT22;41509;53.108;6.100;2022-08-19T02:45:11;16.10;99.90
55642;DHT22;41509;53.108;6.100;2022-08-19T02:47:40;16.00;99.90
55642;DHT22;41509;53.108;6.100;2022-08-19T02:50:06;16.10;99.90
55642;DHT22;41509;53.108;6.100;2022-08-19T02:52:33;16.10;99.90
55642;DHT22;41509;53.108;6.100;2022-08-19T02:54:59;16.00;99.90
55642;DHT22;41509;53.108;6.100;2022-08-19T02:57:27;16.00;99.90
55642;DHT22;41509;53.108;6.100;2022-08-19T02:59:53;16.00;99.90
55642;DHT22;41509;53.108;6.100;2022-08-19T03:02:19;16.00;99.90
55642;DHT22;41509;53.108;6.100;2022-08-19T03:04:45;16.00;99.90
55642;DHT22;41509;53.108;6.100;2022-08-19T03:07:14;16.00;99.90
55642;DHT22;41509;53.108;6.100;2022-08-19T03:09:40;16.00;99.90
55642;DHT22;41509;53.108;6.100;2022-08-19T03:12:07;16.00;99.90
55642;DHT22;41509;53.108;6.100;2022-08-19T03:14:33;16.00;99.90
55642;DHT22;41509;53.108;6.100;2022-08-19T03:16:59;16.00;99.90
55642;DHT22;41509;53.108;6.100;2022-08-19T03:19:25;15.90;99.90
55642;DHT22;41509;53.108;6.100;2022-08-19T03:21:51;16.00;99.90
55642;DHT22;41509;53.108;6.100;2022-08-19T03:24:18;16.00;99.90
55642;DHT22;41509;53.108;6.100;2022-08-19T03:26:47;15.90;99.90
55642;DHT22;41509;53.108;6.100;2022-08-19T03:29:13;15.90;99.90
55642;DHT22;41509;53.108;6.100;2022-08-19T03:31:41;15.90;99.90
55642;DHT22;41509;53.108;6.100;2022-08-19T03:34:09;15.90;99.90
55642;DHT22;41509;53.108;6.100;2022-08-19T03:36:37;15.90;99.90
55642;DHT22;41509;53.108;6.100;2022-08-19T03:39:06;15.90;99.90
55642;DHT22;41509;53.108;6.100;2022-08-19T03:41:41;15.90;99.90
55642;DHT22;41509;53.108;6.100;2022-08-19T03:44:10;15.90;99.90
55642;DHT22;41509;53.108;6.100;2022-08-19T03:46:36;15.90;99.90
55642;DHT22;41509;53.108;6.100;2022-08-19T03:49:03;15.80;99.90
55642;DHT22;41509;53.108;6.100;2022-08-19T03:51:37;15.90;99.90
55642;DHT22;41509;53.108;6.100;2022-08-19T03:54:06;15.90;99.90
55642;DHT22;41509;53.108;6.100;2022-08-19T03:56:34;15.90;99.90
55642;DHT22;41509;53.108;6.100;2022-08-19T03:59:00;15.80;99.90
55642;DHT22;41509;53.108;6.100;2022-08-19T04:01:28;15.80;99.90
55642;DHT22;41509;53.108;6.100;2022-08-19T04:03:55;15.80;99.90
55642;DHT22;41509;53.108;6.100;2022-08-19T04:06:24;15.80;99.90
55642;DHT22;41509;53.108;6.100;2022-08-19T04:08:51;15.80;99.90
55642;DHT22;41509;53.108;6.100;2022-08-19T04:11:22;15.80;99.90
55642;DHT22;41509;53.108;6.100;2022-08-19T04:13:49;15.80;99.90
55642;DHT22;41509;53.108;6.100;2022-08-19T04:16:19;15.80;99.90
55642;DHT22;41509;53.108;6.100;2022-08-19T04:18:46;15.80;99.90
55642;DHT22;41509;53.108;6.100;2022-08-19T04:21:17;15.80;99.90
55642;DHT22;41509;53.108;6.100;2022-08-19T04:23:44;15.80;99.90
55642;DHT22;41509;53.108;6.100;2022-08-19T04:26:18;15.80;99.90
55642;DHT22;41509;53.108;6.100;2022-08-19T04:28:48;15.80;99.90
55642;DHT22;41509;53.108;6.100;2022-08-19T04:31:20;15.70;99.90
55642;DHT22;41509;53.108;6.100;2022-08-19T04:33:46;15.90;99.90
55642;DHT22;41509;53.108;6.100;2022-08-19T04:36:17;15.80;99.90
55642;DHT22;41509;53.108;6.100;2022-08-19T04:38:46;15.90;99.90
55642;DHT22;41509;53.108;6.100;2022-08-19T04:41:12;15.80;99.90
55642;DHT22;41509;53.108;6.100;2022-08-19T04:43:59;15.90;99.90
55642;DHT22;41509;53.108;6.100;2022-08-19T04:46:25;15.90;99.90
55642;DHT22;41509;53.108;6.100;2022-08-19T04:48:51;15.90;99.90
55642;DHT22;41509;53.108;6.100;2022-08-19T04:51:18;15.90;99.90
55642;DHT22;41509;53.108;6.100;2022-08-19T04:53:43;15.90;99.90
55642;DHT22;41509;53.108;6.100;2022-08-19T04:56:15;15.90;99.90
55642;DHT22;41509;53.108;6.100;2022-08-19T04:58:43;15.90;99.90
55642;DHT22;41509;53.108;6.100;2022-08-19T05:01:17;15.90;99.90
55642;DHT22;41509;53.108;6.100;2022-08-19T05:03:42;15.90;99.90
55642;DHT22;41509;53.108;6.100;2022-08-19T05:06:11;15.90;99.90
55642;DHT22;41509;53.108;6.100;2022-08-19T05:08:38;16.00;99.90
55642;DHT22;41509;53.108;6.100;2022-08-19T05:11:16;16.00;99.90
55642;DHT22;41509;53.108;6.100;2022-08-19T05:13:42;16.00;99.90
55642;DHT22;41509;53.108;6.100;2022-08-19T05:16:09;16.00;99.90
55642;DHT22;41509;53.108;6.100;2022-08-19T05:18:36;16.00;99.90
55642;DHT22;41509;53.108;6.100;2022-08-19T05:21:20;16.10;99.90
55642;DHT22;41509;53.108;6.100;2022-08-19T05:24:06;16.10;99.90
55642;DHT22;41509;53.108;6.100;2022-08-19T05:26:41;16.20;99.90
55642;DHT22;41509;53.108;6.100;2022-08-19T05:29:07;16.20;99.90
55642;DHT22;41509;53.108;6.100;2022-08-19T05:31:34;16.20;99.90
55642;DHT22;41509;53.108;6.100;2022-08-19T05:34:04;16.20;99.90
55642;DHT22;41509;53.108;6.100;2022-08-19T05:36:35;16.10;99.90
55642;DHT22;41509;53.108;6.100;2022-08-19T05:39:03;16.20;99.90
55642;DHT22;41509;53.108;6.100;2022-08-19T05:41:29;16.30;99.90
55642;DHT22;41509;53.108;6.100;2022-08-19T05:43:56;16.30;99.90
55642;DHT22;41509;53.108;6.100;2022-08-19T05:46:22;16.30;99.90
55642;DHT22;41509;53.108;6.100;2022-08-19T05:48:51;16.30;99.90
55642;DHT22;41509;53.108;6.100;2022-08-19T05:51:16;16.30;99.90
55642;DHT22;41509;53.108;6.100;2022-08-19T05:53:42;16.30;99.90
55642;DHT22;41509;53.108;6.100;2022-08-19T05:56:13;16.40;99.90
55642;DHT22;41509;53.108;6.100;2022-08-19T05:58:42;16.40;99.90
55642;DHT22;41509;53.108;6.100;2022-08-19T06:01:17;16.40;99.90
55642;DHT22;41509;53.108;6.100;2022-08-19T06:03:46;16.50;99.90
55642;DHT22;41509;53.108;6.100;2022-08-19T06:06:13;16.50;99.90
55642;DHT22;41509;53.108;6.100;2022-08-19T06:08:40;16.50;99.90
55642;DHT22;41509;53.108;6.100;2022-08-19T06:11:19;16.60;99.90
55642;DHT22;41509;53.108;6.100;2022-08-19T06:13:46;16.60;99.90
55642;DHT22;41509;53.108;6.100;2022-08-19T06:16:24;16.70;99.90
55642;DHT22;41509;53.108;6.100;2022-08-19T06:18:51;16.70;99.90
55642;DHT22;41509;53.108;6.100;2022-08-19T06:21:19;16.80;99.90
55642;DHT22;41509;53.108;6.100;2022-08-19T06:23:45;16.80;99.90
55642;DHT22;41509;53.108;6.100;2022-08-19T06:26:13;16.90;99.90
55642;DHT22;41509;53.108;6.100;2022-08-19T06:28:39;17.00;99.90
55642;DHT22;41509;53.108;6.100;2022-08-19T06:31:11;17.10;99.90
55642;DHT22;41509;53.108;6.100;2022-08-19T06:33:41;17.20;99.90
55642;DHT22;41509;53.108;6.100;2022-08-19T06:36:07;17.20;99.90
55642;DHT22;41509;53.108;6.100;2022-08-19T06:38:33;17.30;99.90
55642;DHT22;41509;53.108;6.100;2022-08-19T06:41:01;17.30;99.90
55642;DHT22;41509;53.108;6.100;2022-08-19T06:43:27;17.40;99.90
55642;DHT22;41509;53.108;6.100;2022-08-19T06:45:52;17.50;99.90
55642;DHT22;41509;53.108;6.100;2022-08-19T06:48:18;17.60;99.90
55642;DHT22;41509;53.108;6.100;2022-08-19T06:50:43;17.60;99.90
55642;DHT22;41509;53.108;6.100;2022-08-19T06:53:09;17.70;99.90
55642;DHT22;41509;53.108;6.100;2022-08-19T06:55:35;17.70;99.90
55642;DHT22;41509;53.108;6.100;2022-08-19T06:58:03;17.90;99.90
55642;DHT22;41509;53.108;6.100;2022-08-19T07:00:29;18.00;99.90
55642;DHT22;41509;53.108;6.100;2022-08-19T07:02:54;18.00;99.90
55642;DHT22;41509;53.108;6.100;2022-08-19T07:05:20;18.10;99.90
55642;DHT22;41509;53.108;6.100;2022-08-19T07:07:46;18.10;99.90
55642;DHT22;41509;53.108;6.100;2022-08-19T07:10:12;18.20;99.90
55642;DHT22;41509;53.108;6.100;2022-08-19T07:12:37;18.30;99.90
55642;DHT22;41509;53.108;6.100;2022-08-19T07:15:05;18.40;99.90
55642;DHT22;41509;53.108;6.100;2022-08-19T07:17:32;18.40;99.90
55642;DHT22;41509;53.108;6.100;2022-08-19T07:19:58;18.50;99.90
55642;DHT22;41509;53.108;6.100;2022-08-19T07:22:24;18.60;99.90
55642;DHT22;41509;53.108;6.100;2022-08-19T07:24:50;18.60;99.90
55642;DHT22;41509;53.108;6.100;2022-08-19T07:27:16;18.70;99.90
55642;DHT22;41509;53.108;6.100;2022-08-19T07:29:42;18.80;99.90
55642;DHT22;41509;53.108;6.100;2022-08-19T07:32:07;18.80;99.90
55642;DHT22;41509;53.108;6.100;2022-08-19T07:34:34;18.90;99.90
55642;DHT22;41509;53.108;6.100;2022-08-19T07:37:06;18.90;99.90
55642;DHT22;41509;53.108;6.100;2022-08-19T07:39:34;19.00;99.90
55642;DHT22;41509;53.108;6.100;2022-08-19T07:42:03;19.00;99.90
55642;DHT22;41509;53.108;6.100;2022-08-19T07:44:29;19.10;99.90
55642;DHT22;41509;53.108;6.100;2022-08-19T07:46:57;19.20;99.90
55642;DHT22;41509;53.108;6.100;2022-08-19T07:49:23;19.30;99.90
55642;DHT22;41509;53.108;6.100;2022-08-19T07:52:02;19.40;99.90
55642;DHT22;41509;53.108;6.100;2022-08-19T07:54:32;19.50;99.90
55642;DHT22;41509;53.108;6.100;2022-08-19T07:57:00;19.50;99.90
55642;DHT22;41509;53.108;6.100;2022-08-19T07:59:26;19.60;99.90
55642;DHT22;41509;53.108;6.100;2022-08-19T08:01:54;19.70;99.90
55642;DHT22;41509;53.108;6.100;2022-08-19T08:04:19;19.80;99.90
55642;DHT22;41509;53.108;6.100;2022-08-19T08:07:05;19.90;99.90
55642;DHT22;41509;53.108;6.100;2022-08-19T08:09:49;19.90;99.90
55642;DHT22;41509;53.108;6.100;2022-08-19T08:12:23;20.00;99.90
55642;DHT22;41509;53.108;6.100;2022-08-19T08:14:55;20.10;99.90
55642;DHT22;41509;53.108;6.100;2022-08-19T08:17:25;20.20;99.90
55642;DHT22;41509;53.108;6.100;2022-08-19T08:19:51;20.30;99.90
55642;DHT22;41509;53.108;6.100;2022-08-19T08:22:20;20.30;99.90
55642;DHT22;41509;53.108;6.100;2022-08-19T08:25:10;20.40;99.90
55642;DHT22;41509;53.108;6.100;2022-08-19T08:27:37;20.50;99.90
55642;DHT22;41509;53.108;6.100;2022-08-19T08:30:06;20.60;99.90
55642;DHT22;41509;53.108;6.100;2022-08-19T08:32:35;20.70;99.90
55642;DHT22;41509;53.108;6.100;2022-08-19T08:35:03;20.80;99.90
55642;DHT22;41509;53.108;6.100;2022-08-19T08:37:29;20.80;99.90
55642;DHT22;41509;53.108;6.100;2022-08-19T08:39:55;20.90;99.90
55642;DHT22;41509;53.108;6.100;2022-08-19T08:42:27;20.90;99.90
55642;DHT22;41509;53.108;6.100;2022-08-19T08:45:02;21.00;99.90
55642;DHT22;41509;53.108;6.100;2022-08-19T08:47:34;21.10;99.90
55642;DHT22;41509;53.108;6.100;2022-08-19T08:50:07;21.20;99.90
55642;DHT22;41509;53.108;6.100;2022-08-19T08:52:41;21.30;99.90
55642;DHT22;41509;53.108;6.100;2022-08-19T08:55:20;21.40;99.90
55642;DHT22;41509;53.108;6.100;2022-08-19T09:00:24;21.60;99.90
55642;DHT22;41509;53.108;6.100;2022-08-19T09:02:52;21.70;99.90
55642;DHT22;41509;53.108;6.100;2022-08-19T09:05:20;21.70;99.90
55642;DHT22;41509;53.108;6.100;2022-08-19T09:08:07;21.70;99.90
55642;DHT22;41509;53.108;6.100;2022-08-19T09:10:37;21.90;99.90
55642;DHT22;41509;53.108;6.100;2022-08-19T09:16:20;22.00;99.90
55642;DHT22;41509;53.108;6.100;2022-08-19T09:18:55;22.10;99.90
55642;DHT22;41509;53.108;6.100;2022-08-19T09:21:23;22.20;99.90
55642;DHT22;41509;53.108;6.100;2022-08-19T09:23:51;22.30;99.90
55642;DHT22;41509;53.108;6.100;2022-08-19T09:26:19;22.30;99.90
55642;DHT22;41509;53.108;6.100;2022-08-19T09:28:48;22.40;99.90
55642;DHT22;41509;53.108;6.100;2022-08-19T09:31:16;22.40;99.90
55642;DHT22;41509;53.108;6.100;2022-08-19T09:33:42;22.60;99.90
55642;DHT22;41509;53.108;6.100;2022-08-19T09:36:12;22.70;99.90
55642;DHT22;41509;53.108;6.100;2022-08-19T09:38:39;22.80;99.90
55642;DHT22;41509;53.108;6.100;2022-08-19T09:41:08;22.90;99.90
55642;DHT22;41509;53.108;6.100;2022-08-19T09:43:37;23.00;99.90
55642;DHT22;41509;53.108;6.100;2022-08-19T09:46:03;23.10;99.90
55642;DHT22;41509;53.108;6.100;2022-08-19T09:48:32;23.20;99.90
55642;DHT22;41509;53.108;6.100;2022-08-19T09:51:12;23.30;99.90
55642;DHT22;41509;53.108;6.100;2022-08-19T09:53:42;23.40;99.90
55642;DHT22;41509;53.108;6.100;2022-08-19T09:56:09;23.50;99.90
55642;DHT22;41509;53.108;6.100;2022-08-19T09:58:35;23.50;99.90
55642;DHT22;41509;53.108;6.100;2022-08-19T10:01:02;23.50;99.90
55642;DHT22;41509;53.108;6.100;2022-08-19T10:03:29;23.60;99.90
55642;DHT22;41509;53.108;6.100;2022-08-19T10:05:57;23.70;99.90
55642;DHT22;41509;53.108;6.100;2022-08-19T10:08:25;23.60;99.90
55642;DHT22;41509;53.108;6.100;2022-08-19T10:10:52;23.70;99.90
55642;DHT22;41509;53.108;6.100;2022-08-19T10:13:23;23.80;99.90
55642;DHT22;41509;53.108;6.100;2022-08-19T10:15:56;23.90;99.90
55642;DHT22;41509;53.108;6.100;2022-08-19T10:18:23;24.00;99.90
55642;DHT22;41509;53.108;6.100;2022-08-19T10:20:50;24.10;99.90
55642;DHT22;41509;53.108;6.100;2022-08-19T10:23:17;24.20;99.90
55642;DHT22;41509;53.108;6.100;2022-08-19T10:25:43;24.30;99.90
55642;DHT22;41509;53.108;6.100;2022-08-19T10:28:09;24.40;99.90
55642;DHT22;41509;53.108;6.100;2022-08-19T10:30:37;24.50;99.90
55642;DHT22;41509;53.108;6.100;2022-08-19T10:33:03;24.60;99.90
55642;DHT22;41509;53.108;6.100;2022-08-19T10:35:30;24.80;99.90
55642;DHT22;41509;53.108;6.100;2022-08-19T10:37:56;24.80;99.90
55642;DHT22;41509;53.108;6.100;2022-08-19T10:40:26;24.90;99.90
55642;DHT22;41509;53.108;6.100;2022-08-19T10:42:53;24.90;99.90
55642;DHT22;41509;53.108;6.100;2022-08-19T10:45:21;24.90;99.90
55642;DHT22;41509;53.108;6.100;2022-08-19T10:47:52;25.00;99.90
55642;DHT22;41509;53.108;6.100;2022-08-19T10:50:18;25.00;99.90
55642;DHT22;41509;53.108;6.100;2022-08-19T10:53:07;25.10;99.90
55642;DHT22;41509;53.108;6.100;2022-08-19T10:55:36;25.20;99.90
55642;DHT22;41509;53.108;6.100;2022-08-19T10:58:22;25.20;99.90
55642;DHT22;41509;53.108;6.100;2022-08-19T11:00:56;25.20;99.90
55642;DHT22;41509;53.108;6.100;2022-08-19T11:03:24;25.20;99.90
55642;DHT22;41509;53.108;6.100;2022-08-19T11:06:04;25.10;99.90
55642;DHT22;41509;53.108;6.100;2022-08-19T11:08:30;25.10;99.90
55642;DHT22;41509;53.108;6.100;2022-08-19T11:11:01;25.20;99.90
55642;DHT22;41509;53.108;6.100;2022-08-19T11:13:34;25.20;99.90
55642;DHT22;41509;53.108;6.100;2022-08-19T11:16:13;25.10;99.90
55642;DHT22;41509;53.108;6.100;2022-08-19T11:18:45;25.00;99.90
55642;DHT22;41509;53.108;6.100;2022-08-19T11:21:30;25.00;99.90
55642;DHT22;41509;53.108;6.100;2022-08-19T11:24:02;24.90;99.90
55642;DHT22;41509;53.108;6.100;2022-08-19T11:26:29;24.80;99.90
55642;DHT22;41509;53.108;6.100;2022-08-19T11:28:57;24.70;99.90
55642;DHT22;41509;53.108;6.100;2022-08-19T11:31:31;24.50;99.90
55642;DHT22;41509;53.108;6.100;2022-08-19T11:33:58;24.50;99.90
55642;DHT22;41509;53.108;6.100;2022-08-19T11:36:25;24.30;99.90
55642;DHT22;41509;53.108;6.100;2022-08-19T11:38:51;24.30;99.90
55642;DHT22;41509;53.108;6.100;2022-08-19T11:41:19;24.30;99.90
55642;DHT22;41509;53.108;6.100;2022-08-19T11:43:44;24.20;99.90
55642;DHT22;41509;53.108;6.100;2022-08-19T11:46:12;24.10;99.90
55642;DHT22;41509;53.108;6.100;2022-08-19T11:48:40;24.10;99.90
55642;DHT22;41509;53.108;6.100;2022-08-19T11:51:11;24.00;99.90
55642;DHT22;41509;53.108;6.100;2022-08-19T11:53:38;24.00;99.90
55642;DHT22;41509;53.108;6.100;2022-08-19T11:56:07;24.00;99.90
55642;DHT22;41509;53.108;6.100;2022-08-19T11:58:34;24.10;99.90
55642;DHT22;41509;53.108;6.100;2022-08-19T12:01:04;24.10;99.90
55642;DHT22;41509;53.108;6.100;2022-08-19T12:03:30;24.10;99.90
55642;DHT22;41509;53.108;6.100;2022-08-19T12:05:55;24.20;99.90
55642;DHT22;41509;53.108;6.100;2022-08-19T12:08:22;24.30;99.90
55642;DHT22;41509;53.108;6.100;2022-08-19T12:10:48;24.50;99.90
55642;DHT22;41509;53.108;6.100;2022-08-19T12:13:14;24.70;99.90
55642;DHT22;41509;53.108;6.100;2022-08-19T12:15:44;25.00;99.90
55642;DHT22;41509;53.108;6.100;2022-08-19T12:18:11;25.20;99.90
55642;DHT22;41509;53.108;6.100;2022-08-19T12:20:40;25.30;99.90
55642;DHT22;41509;53.108;6.100;2022-08-19T12:23:08;25.30;99.90
55642;DHT22;41509;53.108;6.100;2022-08-19T12:25:35;25.20;99.90
55642;DHT22;41509;53.108;6.100;2022-08-19T12:28:01;25.00;99.90
55642;DHT22;41509;53.108;6.100;2022-08-19T12:30:27;24.80;99.90
55642;DHT22;41509;53.108;6.100;2022-08-19T12:32:54;24.60;99.90
55642;DHT22;41509;53.108;6.100;2022-08-19T12:35:20;24.50;99.90
55642;DHT22;41509;53.108;6.100;2022-08-19T12:37:48;24.40;99.90
55642;DHT22;41509;53.108;6.100;2022-08-19T12:40:15;24.30;99.90
55642;DHT22;41509;53.108;6.100;2022-08-19T12:42:42;24.40;99.90
55642;DHT22;41509;53.108;6.100;2022-08-19T12:45:09;24.40;99.90
55642;DHT22;41509;53.108;6.100;2022-08-19T12:47:35;24.30;99.90
55642;DHT22;41509;53.108;6.100;2022-08-19T12:50:01;24.20;99.90
55642;DHT22;41509;53.108;6.100;2022-08-19T12:52:27;24.10;99.90
55642;DHT22;41509;53.108;6.100;2022-08-19T12:54:56;24.10;99.90
55642;DHT22;41509;53.108;6.100;2022-08-19T12:57:24;24.10;99.90
55642;DHT22;41509;53.108;6.100;2022-08-19T12:59:54;24.10;99.90
55642;DHT22;41509;53.108;6.100;2022-08-19T13:02:20;24.10;99.90
55642;DHT22;41509;53.108;6.100;2022-08-19T13:04:46;24.10;99.90
55642;DHT22;41509;53.108;6.100;2022-08-19T13:07:12;24.10;99.90
55642;DHT22;41509;53.108;6.100;2022-08-19T13:09:37;24.00;99.90
55642;DHT22;41509;53.108;6.100;2022-08-19T13:12:06;24.00;99.90
55642;DHT22;41509;53.108;6.100;2022-08-19T13:14:34;23.80;99.90
55642;DHT22;41509;53.108;6.100;2022-08-19T13:17:00;23.80;99.90
55642;DHT22;41509;53.108;6.100;2022-08-19T13:19:26;23.70;99.90
55642;DHT22;41509;53.108;6.100;2022-08-19T13:21:52;23.70;99.90
55642;DHT22;41509;53.108;6.100;2022-08-19T13:24:20;23.70;99.90
55642;DHT22;41509;53.108;6.100;2022-08-19T13:26:46;23.60;99.90
55642;DHT22;41509;53.108;6.100;2022-08-19T13:29:13;23.60;99.90
55642;DHT22;41509;53.108;6.100;2022-08-19T13:32:01;23.60;99.90
55642;DHT22;41509;53.108;6.100;2022-08-19T13:34:45;23.60;99.90
55642;DHT22;41509;53.108;6.100;2022-08-19T13:37:12;23.60;99.90
55642;DHT22;41509;53.108;6.100;2022-08-19T13:39:37;23.60;99.90
55642;DHT22;41509;53.108;6.100;2022-08-19T13:42:03;23.60;99.90
55642;DHT22;41509;53.108;6.100;2022-08-19T13:44:29;23.50;99.90
55642;DHT22;41509;53.108;6.100;2022-08-19T13:47:00;23.40;99.90
55642;DHT22;41509;53.108;6.100;2022-08-19T13:49:28;23.20;99.90
55642;DHT22;41509;53.108;6.100;2022-08-19T13:51:55;23.10;99.90
55642;DHT22;41509;53.108;6.100;2022-08-19T13:54:21;23.10;99.90
55642;DHT22;41509;53.108;6.100;2022-08-19T13:56:47;23.10;99.90
55642;DHT22;41509;53.108;6.100;2022-08-19T13:59:12;23.10;99.90
55642;DHT22;41509;53.108;6.100;2022-08-19T14:01:38;23.00;99.90
55642;DHT22;41509;53.108;6.100;2022-08-19T14:04:04;23.00;99.90
55642;DHT22;41509;53.108;6.100;2022-08-19T14:06:30;23.10;99.90
55642;DHT22;41509;53.108;6.100;2022-08-19T14:08:56;23.00;99.90
55642;DHT22;41509;53.108;6.100;2022-08-19T14:11:21;23.10;99.90
55642;DHT22;41509;53.108;6.100;2022-08-19T14:13:48;23.00;99.90
55642;DHT22;41509;53.108;6.100;2022-08-19T14:16:14;23.10;99.90
55642;DHT22;41509;53.108;6.100;2022-08-19T14:18:41;23.10;99.90
55642;DHT22;41509;53.108;6.100;2022-08-19T14:21:08;23.10;99.90
55642;DHT22;41509;53.108;6.100;2022-08-19T14:23:39;23.20;99.90
55642;DHT22;41509;53.108;6.100;2022-08-19T14:26:06;23.20;99.90
55642;DHT22;41509;53.108;6.100;2022-08-19T14:28:35;23.20;99.90
55642;DHT22;41509;53.108;6.100;2022-08-19T14:31:00;23.30;99.90
55642;DHT22;41509;53.108;6.100;2022-08-19T14:33:26;23.40;99.90
55642;DHT22;41509;53.108;6.100;2022-08-19T14:35:51;23.40;99.90
55642;DHT22;41509;53.108;6.100;2022-08-19T14:38:17;23.50;99.90
55642;DHT22;41509;53.108;6.100;2022-08-19T14:40:44;23.50;99.90
55642;DHT22;41509;53.108;6.100;2022-08-19T14:43:11;23.50;99.90
55642;DHT22;41509;53.108;6.100;2022-08-19T14:45:38;23.60;99.90
55642;DHT22;41509;53.108;6.100;2022-08-19T14:48:05;23.60;99.90
55642;DHT22;41509;53.108;6.100;2022-08-19T14:50:33;23.60;99.90
55642;DHT22;41509;53.108;6.100;2022-08-19T14:53:01;23.70;99.90
55642;DHT22;41509;53.108;6.100;2022-08-19T14:55:28;23.70;99.90
55642;DHT22;41509;53.108;6.100;2022-08-19T14:57:54;23.80;99.90
55642;DHT22;41509;53.108;6.100;2022-08-19T15:00:20;24.00;99.90
55642;DHT22;41509;53.108;6.100;2022-08-19T15:02:46;24.20;99.90
55642;DHT22;41509;53.108;6.100;2022-08-19T15:05:14;24.40;99.90
55642;DHT22;41509;53.108;6.100;2022-08-19T15:07:40;24.60;99.90
55642;DHT22;41509;53.108;6.100;2022-08-19T15:10:06;24.70;99.90
55642;DHT22;41509;53.108;6.100;2022-08-19T15:12:35;24.70;99.90
55642;DHT22;41509;53.108;6.100;2022-08-19T15:15:01;24.70;99.90
55642;DHT22;41509;53.108;6.100;2022-08-19T15:17:27;24.60;99.90
55642;DHT22;41509;53.108;6.100;2022-08-19T15:19:58;24.60;99.90
55642;DHT22;41509;53.108;6.100;2022-08-19T15:22:24;24.70;99.90
55642;DHT22;41509;53.108;6.100;2022-08-19T15:24:49;24.80;99.90
55642;DHT22;41509;53.108;6.100;2022-08-19T15:27:17;24.80;99.90
55642;DHT22;41509;53.108;6.100;2022-08-19T15:29:43;24.80;99.90
55642;DHT22;41509;53.108;6.100;2022-08-19T15:32:10;24.70;99.90
55642;DHT22;41509;53.108;6.100;2022-08-19T15:34:38;24.50;99.90
55642;DHT22;41509;53.108;6.100;2022-08-19T15:37:04;24.40;99.90
55642;DHT22;41509;53.108;6.100;2022-08-19T15:39:31;24.30;99.90
55642;DHT22;41509;53.108;6.100;2022-08-19T15:41:57;24.20;99.90
55642;DHT22;41509;53.108;6.100;2022-08-19T15:44:25;24.20;99.90